Time;durP1;ratioP1;P1;durP2;ratioP2;P2;SDS_P1;SDS_P2;PMS_P1;PMS_P2;Temp;Humidity;BMP_temperature;BMP_pressure;BME280_temperature;BME280_humidity;BME280_pressure;Samples;Min_cycle;Max_cycle;Signal;HPM_P1;HPM_P2
2022/02/08 00:02:14;;;;;;;10.38;8.85;;;;;;;11.01;57.86;100266.94;1654353;85;21084;-73
2022/02/08 00:04:42;;;;;;;11.63;8.75;;;;;;;10.98;57.83;100267.05;1649980;85;21088;-74
2022/02/08 00:07:10;;;;;;;11.08;9.78;;;;;;;10.96;57.82;100274.05;1660389;85;21080;-74
2022/02/08 00:09:38;;;;;;;12.63;9.65;;;;;;;10.95;57.75;100272.34;1661389;85;21541;-74
2022/02/08 00:12:06;;;;;;;12.03;9.93;;;;;;;10.94;57.73;100271.92;1681778;84;21619;-75
2022/02/08 00:14:34;;;;;;;10.95;9.93;;;;;;;10.92;57.59;100269.81;1651630;85;21144;-75
2022/02/08 00:17:01;;;;;;;12.55;10.50;;;;;;;10.91;57.55;100269.42;1656455;85;21574;-74
2022/02/08 00:19:28;;;;;;;12.63;10.70;;;;;;;10.90;57.40;100278.59;1643762;85;21046;-74
2022/02/08 00:21:55;;;;;;;11.80;10.23;;;;;;;10.88;57.30;100276.02;1642819;85;21069;-74
2022/02/08 00:24:21;;;;;;;12.53;11.25;;;;;;;10.87;57.10;100279.53;1652306;85;21051;-73
2022/02/08 00:26:48;;;;;;;13.45;12.03;;;;;;;10.86;56.98;100283.02;1657492;84;21041;-73
2022/02/08 00:29:15;;;;;;;14.20;12.70;;;;;;;10.83;56.75;100288.33;1656750;85;21133;-73
2022/02/08 00:31:41;;;;;;;15.68;12.68;;;;;;;10.79;56.72;100291.92;1669418;84;21059;-72
2022/02/08 00:34:08;;;;;;;13.72;12.30;;;;;;;10.76;56.67;100294.60;1658025;84;21037;-74
2022/02/08 00:36:34;;;;;;;15.58;12.85;;;;;;;10.73;56.64;100296.02;1660981;85;21014;-74
2022/02/08 00:39:00;;;;;;;15.32;13.03;;;;;;;10.72;56.53;100294.29;1654443;84;21085;-73
2022/02/08 00:41:28;;;;;;;15.38;13.65;;;;;;;10.70;56.55;100299.13;1636679;85;21026;-73
2022/02/08 00:44:18;;;;;;;16.25;13.88;;;;;;;10.70;56.45;100300.43;1656376;84;21065;-73
2022/02/08 00:46:48;;;;;;;17.30;14.00;;;;;;;10.68;56.33;100297.88;1699061;82;21057;-73
2022/02/08 00:49:11;;;;;;;15.70;13.78;;;;;;;10.64;56.27;100298.43;1716481;82;21055;-73
2022/02/08 00:51:51;;;;;;;15.98;13.30;;;;;;;10.61;56.28;100305.48;1725711;82;21096;-73
2022/02/08 00:54:15;;;;;;;15.65;13.95;;;;;;;10.59;56.38;100312.48;1759376;80;21010;-73
2022/02/08 00:56:41;;;;;;;20.02;15.05;;;;;;;10.57;56.42;100305.99;1775618;80;21024;-73
2022/02/08 00:59:10;;;;;;;19.02;15.72;;;;;;;10.55;56.36;100305.66;1754174;80;21055;-73
2022/02/08 01:01:38;;;;;;;18.15;15.05;;;;;;;10.51;56.42;100302.71;1749128;80;21069;-73
2022/02/08 01:04:06;;;;;;;18.55;15.30;;;;;;;10.48;56.58;100300.21;1761059;80;21015;-73
2022/02/08 01:06:33;;;;;;;19.02;15.65;;;;;;;10.47;56.45;100301.09;1769993;80;21600;-73
2022/02/08 01:09:16;;;;;;;20.72;16.97;;;;;;;10.37;56.51;100298.35;1765079;80;21489;-74
2022/02/08 01:11:43;;;;;;;19.90;17.00;;;;;;;10.26;56.64;100305.15;1757277;80;21030;-74
2022/02/08 01:14:09;;;;;;;18.95;16.87;;;;;;;10.15;56.70;100303.74;1761649;80;21068;-73
2022/02/08 01:16:36;;;;;;;18.65;16.67;;;;;;;10.03;56.79;100313.14;1753755;80;20999;-73
2022/02/08 01:19:04;;;;;;;16.80;15.00;;;;;;;9.95;56.90;100309.89;1756258;80;21085;-73
2022/02/08 01:21:32;;;;;;;19.87;15.05;;;;;;;9.90;56.97;100314.34;1753083;80;21054;-72
2022/02/08 01:24:00;;;;;;;17.10;15.30;;;;;;;9.87;57.09;100310.55;1758065;80;21089;-72
2022/02/08 01:26:27;;;;;;;16.52;14.70;;;;;;;9.83;56.90;100310.61;1753891;80;21576;-72
2022/02/08 01:31:24;;;;;;;13.20;11.85;;;;;;;9.75;56.70;100312.98;1753303;81;21519;-72
2022/02/08 01:39:22;;;;;;;9.93;8.93;;;;;;;9.49;56.33;100315.39;1757478;80;21029;-72
2022/02/08 01:44:38;;;;;;;7.95;7.25;;;;;;;9.27;56.34;100326.73;1763284;80;21055;-71
2022/02/08 01:49:49;;;;;;;7.42;6.72;;;;;;;9.03;56.55;100332.02;1716176;82;21049;-73
2022/02/08 01:52:06;;;;;;;6.53;5.70;;;;;;;8.94;56.56;100332.69;1709067;82;21107;-72
2022/02/08 01:54:33;;;;;;;6.45;4.95;;;;;;;8.87;56.73;100336.28;1717439;82;21069;-72
2022/02/08 01:57:00;;;;;;;5.30;4.80;;;;;;;8.81;56.61;100339.88;1723548;82;21070;-72
2022/02/08 01:59:27;;;;;;;4.35;3.95;;;;;;;8.75;56.59;100341.30;1715539;82;21050;-73
2022/02/08 02:01:54;;;;;;;4.85;4.08;;;;;;;8.69;56.60;100333.64;1714319;82;21015;-73
2022/02/08 02:04:21;;;;;;;4.20;3.80;;;;;;;8.66;56.65;100338.02;1705699;82;21007;-72
2022/02/08 02:06:48;;;;;;;4.67;4.20;;;;;;;8.61;56.61;100330.36;1706136;82;21021;-72
2022/02/08 02:09:16;;;;;;;3.80;3.50;;;;;;;8.55;56.67;100324.44;1732756;82;21077;-72
2022/02/08 02:11:43;;;;;;;4.17;3.83;;;;;;;8.48;56.69;100337.10;1716974;81;21101;-72
2022/02/08 02:14:09;;;;;;;3.62;3.20;;;;;;;8.44;56.76;100348.42;1719618;81;21089;-73
2022/02/08 02:19:06;;;;;;;3.52;3.17;;;;;;;8.36;56.97;100363.27;1719120;82;21090;-71
2022/02/08 02:21:34;;;;;;;2.95;2.60;;;;;;;8.36;57.09;100356.78;1715846;81;21031;-71
2022/02/08 02:24:01;;;;;;;3.72;3.20;;;;;;;8.36;57.06;100342.09;1709846;82;21086;-72
2022/02/08 02:26:27;;;;;;;3.12;2.83;;;;;;;8.36;57.04;100334.75;1718153;82;21018;-72
2022/02/08 02:28:54;;;;;;;2.85;2.65;;;;;;;8.34;57.00;100335.22;1713977;82;21017;-73
2022/02/08 02:31:22;;;;;;;2.80;2.58;;;;;;;8.32;57.11;100339.59;1725304;81;21058;-72
2022/02/08 02:33:50;;;;;;;2.83;2.62;;;;;;;8.30;57.08;100337.47;1723756;82;21073;-72
2022/02/08 02:36:16;;;;;;;3.25;3.05;;;;;;;8.29;57.10;100342.22;1720161;81;21027;-71
2022/02/08 02:38:45;;;;;;;3.62;2.85;;;;;;;8.27;57.05;100345.28;1722860;81;21050;-71
2022/02/08 02:41:14;;;;;;;2.77;2.58;;;;;;;8.24;57.12;100351.37;1721049;82;21077;-71
2022/02/08 02:43:44;;;;;;;2.67;2.47;;;;;;;8.19;57.24;100347.56;1712512;81;21038;-71
2022/02/08 02:46:11;;;;;;;2.90;2.70;;;;;;;8.18;57.44;100364.44;1753306;80;21043;-72
2022/02/08 02:48:38;;;;;;;3.20;2.90;;;;;;;8.18;57.45;100366.57;1750065;80;21088;-72
2022/02/08 02:51:06;;;;;;;4.17;3.02;;;;;;;8.16;57.39;100376.11;1757543;80;21010;-72
2022/02/08 02:53:37;;;;;;;3.40;3.05;;;;;;;8.15;57.42;100382.63;1749327;80;21565;-73
2022/02/08 02:56:06;;;;;;;3.00;2.80;;;;;;;8.11;57.36;100381.84;1751220;80;21010;-72
2022/02/08 02:58:36;;;;;;;3.33;2.85;;;;;;;8.08;57.47;100377.13;1759814;80;21061;-72
2022/02/08 03:17:38;;;;;;;3.40;2.87;;;;;;;7.94;57.49;100387.73;1743803;81;21003;-71
2022/02/08 03:19:58;;;;;;;3.52;3.22;;;;;;;7.93;57.49;100386.02;1750226;80;21019;-71
2022/02/08 03:22:25;;;;;;;3.27;2.98;;;;;;;7.89;57.49;100383.05;1762611;80;21553;-72
2022/02/08 03:24:52;;;;;;;2.95;2.75;;;;;;;7.85;57.61;100395.65;1752386;81;21008;-72
2022/02/08 03:27:18;;;;;;;3.27;2.98;;;;;;;7.85;57.60;100390.47;1764986;80;21002;-71
2022/02/08 03:29:45;;;;;;;4.25;3.40;;;;;;;7.84;57.65;100384.89;1754653;81;21044;-72
2022/02/08 03:32:14;;;;;;;3.92;3.52;;;;;;;7.87;57.59;100393.05;1768966;80;21001;-72
2022/02/08 03:34:41;;;;;;;3.67;3.25;;;;;;;7.86;57.67;100392.63;1752618;80;20998;-71
2022/02/08 03:37:08;;;;;;;4.40;3.37;;;;;;;7.87;57.59;100401.66;1766377;80;21324;-71
2022/02/08 03:39:38;;;;;;;3.27;2.98;;;;;;;7.85;57.57;100409.89;1757746;80;21037;-71
2022/02/08 03:42:17;;;;;;;4.10;3.52;;;;;;;7.81;57.66;100422.48;1759356;80;21110;-71
2022/02/08 03:44:36;;;;;;;3.80;3.50;;;;;;;7.79;57.70;100426.83;1762838;80;21061;-72
2022/02/08 03:49:32;;;;;;;4.40;4.00;;;;;;;7.76;57.74;100437.25;1719364;82;21015;-72
2022/02/08 03:52:04;;;;;;;4.47;4.08;;;;;;;7.71;57.79;100441.64;1703878;82;20994;-72
2022/02/08 03:54:29;;;;;;;5.42;4.33;;;;;;;7.71;57.84;100446.81;1719466;82;21011;-72
2022/02/08 03:56:56;;;;;;;5.28;4.78;;;;;;;7.68;57.88;100448.17;1714864;82;20995;-71
2022/02/08 03:59:23;;;;;;;5.00;4.10;;;;;;;7.66;57.92;100457.70;1718979;82;21062;-72
2022/02/08 04:04:48;;;;;;;5.08;4.60;;;;;;;7.68;57.97;100459.83;1713094;82;21019;-71
2022/02/08 04:07:12;;;;;;;5.22;4.72;;;;;;;7.68;57.90;100478.38;1707840;82;21112;-71
2022/02/08 04:09:33;;;;;;;4.50;4.10;;;;;;;7.67;57.90;100485.29;1695767;82;21053;-72
2022/02/08 04:12:06;;;;;;;4.40;4.00;;;;;;;7.64;57.99;100489.23;1706394;82;21083;-71
2022/02/08 04:17:01;;;;;;;5.70;4.90;;;;;;;7.55;58.17;100495.82;1721441;82;21085;-72
2022/02/08 04:19:33;;;;;;;5.15;4.65;;;;;;;7.60;58.19;100506.98;1718085;82;21128;-72
2022/02/08 04:33:09;;;;;;;6.22;5.62;;;;;;;7.63;58.07;100517.72;1707428;82;21112;-72
2022/02/08 04:35:59;;;;;;;6.97;5.80;;;;;;;7.63;58.10;100532.82;1696941;82;21505;-71
2022/02/08 04:38:23;;;;;;;8.63;5.90;;;;;;;7.64;58.05;100522.03;1707905;82;21672;-71
2022/02/08 04:43:27;;;;;;;8.05;6.37;;;;;;;7.62;58.05;100528.53;1713484;82;21010;-71
2022/02/08 04:46:00;;;;;;;7.12;6.42;;;;;;;7.63;58.12;100541.88;1729238;80;21022;-73
2022/02/08 04:48:31;;;;;;;7.03;6.00;;;;;;;7.62;58.03;100539.33;1757698;80;21528;-71
2022/02/08 04:50:56;;;;;;;8.40;6.70;;;;;;;7.60;58.14;100540.64;1761316;81;21552;-72
2022/02/08 04:53:30;;;;;;;7.37;6.67;;;;;;;7.59;58.16;100558.34;1746863;80;22197;-72
2022/02/08 04:55:57;;;;;;;8.20;6.58;;;;;;;7.57;58.18;100564.41;1755684;80;21019;-72
2022/02/08 04:58:30;;;;;;;7.65;6.95;;;;;;;7.55;58.21;100556.66;1764024;80;21097;-71
2022/02/08 05:01:07;;;;;;;9.63;7.15;;;;;;;7.53;58.25;100570.50;1747697;80;21169;-72
2022/02/08 05:43:39;;;;;;;7.20;6.05;;;;;;;7.40;58.88;100634.50;1589765;90;21129;-71
2022/02/08 05:48:28;;;;;;;7.92;7.12;;;;;;;7.37;58.97;100657.84;1547328;92;21115;-71
2022/02/08 05:50:59;;;;;;;7.50;6.70;;;;;;;7.36;59.00;100660.00;1480180;96;21114;-70
2022/02/08 05:53:42;;;;;;;11.67;7.57;;;;;;;7.36;59.06;100660.00;1482566;96;21166;-70
2022/02/08 05:55:59;;;;;;;7.80;7.00;;;;;;;7.35;59.11;100672.53;1470167;96;22474;-72
2022/02/08 05:58:26;;;;;;;9.43;8.03;;;;;;;7.32;59.16;100682.91;1488255;96;21143;-71
2022/02/08 06:00:53;;;;;;;8.38;7.58;;;;;;;7.30;59.21;100683.36;1465611;97;21196;-71
2022/02/08 06:03:21;;;;;;;9.33;8.10;;;;;;;7.29;59.24;100690.72;1476042;96;21165;-71
2022/02/08 06:05:52;;;;;;;9.75;8.85;;;;;;;7.28;59.26;100663.97;1511315;93;21083;-70
2022/02/08 06:08:21;;;;;;;9.75;8.63;;;;;;;7.29;59.27;100701.06;1492664;93;21130;-71
2022/02/08 06:13:20;;;;;;;9.03;8.13;;;;;;;7.29;59.29;100698.48;1515710;93;21140;-71
2022/02/08 06:15:48;;;;;;;8.25;7.42;;;;;;;7.32;59.30;100707.06;1514777;93;21115;-71
2022/02/08 06:18:16;;;;;;;8.55;7.67;;;;;;;7.35;59.26;100711.36;1529560;90;21144;-71
2022/02/08 06:20:42;;;;;;;9.83;8.05;;;;;;;7.37;59.24;100712.20;1584184;89;21132;-73
2022/02/08 06:23:09;;;;;;;9.03;8.00;;;;;;;7.35;59.17;100716.53;1584437;90;21067;-72
2022/02/08 06:25:36;;;;;;;7.97;7.17;;;;;;;7.34;59.20;100722.56;1590012;89;21074;-71
2022/02/08 06:28:03;;;;;;;8.85;7.75;;;;;;;7.34;59.26;100719.98;1557393;91;21079;-70
2022/02/08 06:30:29;;;;;;;9.50;8.50;;;;;;;7.37;59.30;100725.14;1581340;90;21106;-71
2022/02/08 08:06:04;;;;;;;5.67;5.10;;;;;;;4.35;76.08;100912.81;1800951;78;26010;-69
2022/02/08 08:08:32;;;;;;;5.22;4.45;;;;;;;5.83;68.50;100913.28;1744440;80;21055;-70
2022/02/08 08:10:59;;;;;;;5.92;4.47;;;;;;;6.16;66.79;100914.55;1743985;80;21060;-70
2022/02/08 08:13:27;;;;;;;4.28;3.80;;;;;;;6.31;65.92;100916.25;1749174;80;21090;-70
2022/02/08 08:16:04;;;;;;;4.75;4.20;;;;;;;6.40;65.43;100924.87;1752128;80;21030;-70
2022/02/08 08:20:53;;;;;;;3.60;2.70;;;;;;;6.51;64.52;100941.20;1753190;80;21080;-70
2022/02/08 08:23:19;;;;;;;4.15;2.90;;;;;;;6.57;64.22;100939.88;1755238;80;21074;-69
2022/02/08 08:25:49;;;;;;;2.75;2.33;;;;;;;6.63;63.97;100943.33;1775545;80;21025;-70
2022/02/08 08:28:14;;;;;;;2.55;2.33;;;;;;;6.70;63.75;100946.34;1759960;80;21021;-69
2022/02/08 08:30:40;;;;;;;2.72;2.33;;;;;;;6.72;63.44;100947.20;1749190;80;20990;-70
2022/02/08 08:33:07;;;;;;;2.30;2.10;;;;;;;6.73;62.97;100948.48;1764078;80;21011;-70
2022/02/08 08:35:35;;;;;;;1.92;1.82;;;;;;;6.70;62.75;100954.94;1757449;80;21065;-69
2022/02/08 08:38:05;;;;;;;2.70;1.77;;;;;;;6.67;62.63;100952.37;1741567;80;20993;-69
2022/02/08 08:51:56;;;;;;;1.40;1.00;;;;;;;5.78;65.49;100989.44;1829201;77;26150;-71
2022/02/08 08:54:26;;;;;;;4.95;1.25;;;;;;;6.63;62.40;100993.75;1785215;78;21120;-73
2022/02/08 08:56:53;;;;;;;2.33;1.00;;;;;;;6.82;61.62;100983.80;1796829;77;21073;-72
2022/02/08 08:59:20;;;;;;;1.85;1.20;;;;;;;6.87;61.13;100997.56;1796046;77;20974;-73
2022/02/08 09:01:48;;;;;;;2.00;1.30;;;;;;;6.88;60.84;100993.70;1803961;77;21039;-71
2022/02/08 09:04:18;;;;;;;1.10;1.10;;;;;;;6.87;60.72;100998.86;1796612;78;20982;-73
2022/02/08 09:06:45;;;;;;;1.30;1.10;;;;;;;6.86;60.64;101010.09;1785789;78;20986;-71
2022/02/08 09:09:15;;;;;;;1.30;1.15;;;;;;;6.84;60.63;101010.52;1789798;77;21060;-72
2022/02/08 09:11:54;;;;;;;1.67;1.32;;;;;;;6.83;60.59;101024.30;1822447;77;21037;-72
2022/02/08 09:14:13;;;;;;;1.20;1.10;;;;;;;6.82;60.56;101021.30;1805041;77;20990;-72
2022/02/08 09:16:52;;;;;;;1.20;1.20;;;;;;;6.81;60.56;101028.62;1786698;78;21022;-74
2022/02/08 09:32:51;;;;;;;1.55;1.45;;;;;;;6.84;60.32;101065.67;1694678;82;21081;-72
2022/02/08 09:35:16;;;;;;;1.95;1.50;;;;;;;6.83;60.33;101056.63;1699302;81;21070;-73
2022/02/08 09:37:44;;;;;;;2.08;1.45;;;;;;;6.82;60.33;101066.56;1702142;81;21097;-74
2022/02/08 09:40:12;;;;;;;2.52;1.40;;;;;;;6.80;60.31;101069.59;1723796;81;21041;-73
2022/02/08 09:42:41;;;;;;;1.77;1.45;;;;;;;6.79;60.25;101067.84;1686126;82;21430;-73
2022/02/08 09:45:12;;;;;;;3.60;2.17;;;;;;;6.78;60.22;101064.84;1710062;82;21033;-74
2022/02/08 09:47:44;;;;;;;2.40;1.77;;;;;;;6.78;60.11;101073.91;1693485;82;21069;-74
2022/02/08 09:50:14;;;;;;;1.52;1.42;;;;;;;6.80;60.15;101078.18;1702003;82;21193;-73
2022/02/08 09:52:37;;;;;;;1.80;1.60;;;;;;;6.81;60.02;101077.76;1709236;81;21076;-73
2022/02/08 09:55:04;;;;;;;1.70;1.60;;;;;;;6.82;59.96;101074.33;1708452;83;21121;-74
2022/02/08 09:57:31;;;;;;;1.60;1.50;;;;;;;6.84;59.98;101081.19;1687035;84;21038;-72
2022/02/08 09:59:57;;;;;;;1.47;1.32;;;;;;;6.84;59.91;101090.70;1686747;82;21139;-73
2022/02/08 10:02:24;;;;;;;1.98;1.60;;;;;;;6.83;59.85;101092.84;1690548;83;21022;-73
2022/02/08 10:05:00;;;;;;;1.60;1.50;;;;;;;6.83;59.88;101092.84;1679430;84;21010;-74
2022/02/08 10:07:28;;;;;;;1.37;1.27;;;;;;;6.83;59.91;101098.02;1624132;87;21035;-73
2022/02/08 10:09:55;;;;;;;1.62;1.50;;;;;;;6.82;59.96;101101.48;1599237;87;21161;-75
2022/02/08 10:12:28;;;;;;;1.27;1.15;;;;;;;6.80;59.96;101109.22;1602245;87;21175;-73
2022/02/08 10:22:48;;;;;;;1.37;1.27;;;;;;;6.85;59.72;101120.44;1635827;86;21046;-73
2022/02/08 10:28:11;;;;;;;1.17;1.05;;;;;;;6.84;59.50;101125.63;1618202;86;21090;-72
2022/02/08 10:38:42;;;;;;;1.95;0.95;;;;;;;6.87;59.34;101134.66;1665934;84;21107;-72
2022/02/08 10:41:15;;;;;;;1.77;1.03;;;;;;;6.89;59.28;101141.98;1635539;86;21068;-71
2022/02/08 10:43:42;;;;;;;3.52;1.30;;;;;;;6.91;59.14;101146.30;1571277;90;21069;-72
2022/02/08 10:46:19;;;;;;;1.87;1.32;;;;;;;6.94;59.06;101141.56;1596664;89;21126;-74
2022/02/08 10:48:46;;;;;;;2.62;1.15;;;;;;;6.97;58.87;101148.01;1586872;88;21565;-72
2022/02/08 10:51:15;;;;;;;2.20;1.32;;;;;;;7.01;58.79;101147.14;1553258;90;21182;-73
2022/02/08 10:53:53;;;;;;;1.55;1.20;;;;;;;7.04;58.61;101148.45;1576982;89;21081;-72
2022/02/08 10:56:12;;;;;;;1.95;1.25;;;;;;;7.04;58.58;101150.61;1575981;89;21180;-73
2022/02/08 10:58:49;;;;;;;1.70;1.42;;;;;;;7.07;58.52;101160.07;1550930;91;21073;-74
2022/02/08 11:01:15;;;;;;;1.62;1.12;;;;;;;7.04;58.49;101158.38;1560776;91;21077;-73
2022/02/08 11:09:01;;;;;;;1.87;1.27;;;;;;;7.04;58.47;101169.14;1565858;90;21068;-74
2022/02/08 11:16:30;;;;;;;1.55;1.37;;;;;;;7.00;58.54;101173.89;1452453;97;21169;-75
2022/02/08 11:21:52;;;;;;;4.62;1.60;;;;;;;7.00;58.55;101173.89;1460147;97;21106;-76
2022/02/08 11:24:26;;;;;;;1.52;1.02;;;;;;;7.00;58.54;101194.59;1465517;96;21143;-76
2022/02/08 11:27:00;;;;;;;2.27;1.32;;;;;;;6.97;58.62;101185.09;1459815;96;21821;-77
2022/02/08 11:32:15;;;;;;;2.10;1.37;;;;;;;6.96;58.86;101192.45;1414593;99;21287;-75
2022/02/08 12:07:56;;;;;;;2.05;1.40;;;;;;;7.13;58.99;101206.67;1421705;99;21223;-73
2022/02/08 12:10:36;;;;;;;2.60;1.40;;;;;;;7.16;58.85;101236.41;1436751;98;21565;-74
2022/02/08 12:32:54;;;;;;;1.42;1.15;;;;;;;7.12;58.36;101256.69;1621075;86;21599;-76
2022/02/08 12:50:00;;;;;;;2.37;1.27;;;;;;;7.15;56.25;101304.58;1423778;99;21691;-73
2022/02/08 12:57:51;;;;;;;2.90;1.25;;;;;;;7.19;55.57;101328.31;1391472;101;21125;-72
2022/02/08 13:00:24;;;;;;;3.42;1.62;;;;;;;7.22;55.40;101339.94;1408421;100;21207;-72
2022/02/08 14:01:40;;;;;;;2.33;1.60;;;;;;;7.32;53.29;101381.80;1423542;98;21214;-71
2022/02/08 14:07:50;;;;;;;4.78;1.70;;;;;;;7.31;53.32;101446.09;1541006;91;21083;-70
2022/02/08 14:13:32;;;;;;;2.87;1.47;;;;;;;7.27;53.64;101462.48;1566459;90;21095;-71
2022/02/08 14:15:47;;;;;;;1.87;1.25;;;;;;;7.29;53.79;101460.77;1604015;86;21074;-71
2022/02/08 14:18:15;;;;;;;2.25;1.60;;;;;;;7.30;53.67;101458.59;1692167;84;21540;-74
2022/02/08 14:20:59;;;;;;;3.12;2.10;;;;;;;7.25;53.47;101459.03;1677248;84;21072;-70
2022/02/08 14:23:52;;;;;;;2.35;1.32;;;;;;;7.23;53.59;101462.05;1693538;84;21062;-71
2022/02/08 14:29:20;;;;;;;3.92;1.65;;;;;;;7.19;53.43;101455.13;1686927;84;21573;-71
2022/02/08 15:08:53;;;;;;;10.55;7.17;;;;;;;7.05;52.48;101471.88;1590489;89;21082;-70
2022/02/08 15:11:21;;;;;;;5.10;4.47;;;;;;;7.05;52.58;101489.12;1588503;89;21044;-69
2022/02/08 15:13:50;;;;;;;3.67;2.20;;;;;;;7.01;52.77;101492.55;1654599;82;21498;-73
2022/02/08 15:16:29;;;;;;;4.72;2.05;;;;;;;6.95;53.09;101504.17;1734063;80;20990;-73
2022/02/08 15:25:28;;;;;;;3.83;2.27;;;;;;;5.17;60.25;101512.53;1808390;77;26641;-69
2022/02/08 15:28:02;;;;;;;3.27;1.75;;;;;;;6.52;55.70;101518.16;1783081;78;21551;-70
2022/02/08 15:30:26;;;;;;;3.65;2.02;;;;;;;6.76;54.53;101521.77;1783675;77;21041;-69
2022/02/08 15:32:53;;;;;;;4.03;2.30;;;;;;;6.80;54.07;101531.27;1798868;77;21034;-70
2022/02/08 15:35:20;;;;;;;4.58;2.40;;;;;;;6.81;53.90;101534.28;1780935;77;21014;-71
2022/02/08 15:37:49;;;;;;;5.60;3.17;;;;;;;6.82;53.81;101536.03;1793512;77;21506;-70
2022/02/08 15:40:19;;;;;;;6.75;3.90;;;;;;;6.62;54.42;101545.36;1786304;77;21551;-71
2022/02/08 15:42:48;;;;;;;4.45;3.30;;;;;;;6.80;53.92;101539.03;1772661;77;21096;-72
2022/02/08 15:47:45;;;;;;;2.87;2.20;;;;;;;6.77;53.67;101554.52;1718569;82;21136;-70
2022/02/08 15:50:17;;;;;;;6.45;4.17;;;;;;;6.56;54.05;101564.29;1707760;82;21014;-71
2022/02/08 15:55:32;;;;;;;5.17;2.42;;;;;;;6.48;54.12;101578.47;1636407;87;21121;-70
2022/02/08 16:08:49;;;;;;;7.75;4.42;;;;;;;6.42;53.78;101601.68;1611849;88;21077;-72
2022/02/08 16:13:54;;;;;;;23.18;12.55;;;;;;;6.44;53.65;101614.61;1590204;89;21159;-72
2022/02/08 16:16:44;;;;;;;18.00;11.55;;;;;;;6.45;53.54;101609.90;1627739;86;21100;-73
2022/02/08 16:19:00;;;;;;;9.70;6.65;;;;;;;6.45;53.43;101614.62;1621647;87;21163;-72
2022/02/08 16:24:10;;;;;;;7.10;4.22;;;;;;;6.44;53.49;101624.53;1628152;86;21081;-72
2022/02/08 16:56:53;;;;;;;7.33;3.30;;;;;;;6.32;53.51;101681.30;1803666;79;21085;-70
2022/02/08 16:59:05;;;;;;;4.47;2.65;;;;;;;6.30;53.46;101688.16;1784363;80;21893;-71
2022/02/08 17:01:34;;;;;;;6.65;2.80;;;;;;;6.28;53.34;101683.41;1803433;79;20978;-70
2022/02/08 17:04:01;;;;;;;5.70;3.10;;;;;;;6.27;53.23;101689.83;1798702;80;21065;-72
2022/02/08 17:06:28;;;;;;;5.10;3.30;;;;;;;6.26;53.10;101690.70;1798444;79;21054;-70
2022/02/08 17:09:03;;;;;;;6.42;3.25;;;;;;;6.26;52.99;101688.98;1798493;80;21046;-70
2022/02/08 17:46:52;;;;;;;5.10;3.20;;;;;;;6.06;52.63;101680.13;1745244;81;21037;-71
2022/02/08 17:49:09;;;;;;;5.22;3.37;;;;;;;6.07;52.72;101687.45;1748764;81;21003;-71
2022/02/08 17:51:36;;;;;;;5.03;3.45;;;;;;;6.05;52.86;101684.87;1741549;81;21091;-70
2022/02/08 17:54:04;;;;;;;5.53;3.42;;;;;;;6.03;52.95;101685.69;1758854;81;21492;-71
2022/02/08 17:56:31;;;;;;;4.05;3.20;;;;;;;6.01;52.82;101694.72;1750054;81;21057;-71
2022/02/08 17:58:57;;;;;;;6.28;3.60;;;;;;;5.97;52.57;101682.62;1749902;82;21145;-71
2022/02/08 18:01:25;;;;;;;5.55;3.67;;;;;;;5.94;52.49;101695.48;1748838;80;21041;-71
2022/02/08 18:03:51;;;;;;;7.67;3.47;;;;;;;5.93;52.54;101691.19;1751796;81;20998;-71
2022/02/08 18:06:18;;;;;;;4.60;3.70;;;;;;;5.92;52.60;101697.19;1747624;80;21061;-71
2022/02/08 18:08:46;;;;;;;7.97;4.35;;;;;;;5.92;52.64;101693.31;1757743;80;21541;-70
2022/02/08 18:11:13;;;;;;;5.87;3.67;;;;;;;5.92;52.67;101699.77;1753316;80;22100;-69
2022/02/08 18:13:43;;;;;;;8.55;4.25;;;;;;;5.90;52.87;101695.42;1762314;80;21074;-71
2022/02/08 18:16:09;;;;;;;6.70;4.17;;;;;;;5.89;52.98;101697.17;1774533;79;21078;-70
2022/02/08 18:18:41;;;;;;;6.55;3.72;;;;;;;5.88;53.11;101708.33;1738844;82;21089;-71
2022/02/08 18:21:18;;;;;;;6.03;4.12;;;;;;;5.88;53.21;101712.20;1753034;81;21022;-71
2022/02/08 18:24:14;;;;;;;4.22;3.80;;;;;;;5.86;53.35;101710.03;1753533;81;21042;-71
2022/02/08 18:52:26;;;;;;;4.37;3.15;;;;;;;5.81;51.38;101730.16;1796014;80;20987;-70
2022/02/08 18:56:13;;;;;;;6.62;3.17;;;;;;;5.80;51.13;101724.13;1794455;79;21054;-71
2022/02/08 19:22:09;;;;;;;7.65;5.10;;;;;;;6.16;50.50;101741.39;1652370;86;21061;-70
2022/02/08 19:24:35;;;;;;;7.67;5.58;;;;;;;6.15;50.54;101733.21;1652346;86;21089;-70
2022/02/08 19:27:04;;;;;;;6.37;4.17;;;;;;;6.16;50.40;101728.47;1650396;86;21073;-71
2022/02/08 19:29:34;;;;;;;6.78;4.47;;;;;;;6.15;50.07;101734.50;1668484;83;21093;-70
2022/02/08 19:32:00;;;;;;;9.93;4.83;;;;;;;6.16;50.29;101733.64;1647302;85;21034;-71
2022/02/08 19:34:27;;;;;;;9.10;5.42;;;;;;;6.17;50.15;101737.97;1658651;85;21086;-70
2022/02/08 19:36:57;;;;;;;7.95;4.40;;;;;;;6.16;50.15;101731.05;1680844;84;21006;-70
2022/02/08 19:39:22;;;;;;;8.88;4.90;;;;;;;6.17;50.03;101740.56;1682859;84;21065;-71
2022/02/08 19:41:49;;;;;;;11.15;5.08;;;;;;;6.16;49.95;101741.84;1695596;83;21101;-71
2022/02/08 19:44:15;;;;;;;5.53;4.42;;;;;;;6.16;50.06;101743.97;1788314;79;21038;-70
2022/02/08 19:46:42;;;;;;;8.03;4.97;;;;;;;6.16;50.06;101760.77;1766330;80;21040;-70
2022/02/08 19:49:09;;;;;;;7.67;5.58;;;;;;;6.16;50.23;101760.77;1743641;81;21076;-70
2022/02/08 19:51:38;;;;;;;9.33;5.35;;;;;;;6.14;50.45;101774.09;1739806;80;21078;-70
2022/02/08 19:54:08;;;;;;;9.83;5.80;;;;;;;6.11;50.58;101771.50;1757019;80;21032;-70
2022/02/08 19:56:43;;;;;;;11.45;5.05;;;;;;;6.09;50.78;101775.78;1797737;79;21003;-70
2022/02/08 19:59:08;;;;;;;9.83;5.45;;;;;;;6.05;50.90;101776.59;1793069;79;21470;-71
2022/02/08 20:01:36;;;;;;;11.03;5.95;;;;;;;6.02;51.23;101789.45;1803946;79;21022;-71
2022/02/08 20:04:16;;;;;;;8.18;4.90;;;;;;;5.99;51.64;101786.84;1798600;80;21514;-71
2022/02/08 20:06:34;;;;;;;11.05;5.72;;;;;;;5.98;51.91;101792.84;1793336;79;21097;-71
2022/02/08 20:09:03;;;;;;;14.10;5.42;;;;;;;5.96;51.94;101795.83;1797222;79;20998;-71
2022/02/08 20:11:30;;;;;;;10.10;5.40;;;;;;;5.95;51.91;101800.56;1800281;79;21014;-70
2022/02/08 20:13:57;;;;;;;8.30;4.97;;;;;;;5.95;51.91;101795.41;1801011;79;21002;-70
2022/02/08 20:16:27;;;;;;;7.15;4.33;;;;;;;5.94;51.77;101800.11;1800819;79;21022;-70
2022/02/08 20:18:59;;;;;;;8.65;4.55;;;;;;;5.92;51.62;101795.34;1801283;80;21002;-71
2022/02/08 20:21:29;;;;;;;10.15;4.65;;;;;;;5.92;51.71;101796.64;1744199;80;21124;-70
2022/02/08 20:23:58;;;;;;;7.62;4.90;;;;;;;5.69;52.55;101794.11;1747195;81;21102;-71
2022/02/08 20:26:28;;;;;;;6.47;4.10;;;;;;;5.68;52.52;101797.55;1744992;81;21060;-70
2022/02/08 20:28:56;;;;;;;6.08;4.03;;;;;;;5.68;52.46;101784.64;1747642;81;21029;-70
2022/02/08 20:31:24;;;;;;;5.05;3.52;;;;;;;5.67;52.49;101789.34;1746692;81;21020;-71
2022/02/08 20:33:51;;;;;;;3.77;3.35;;;;;;;5.68;52.62;101790.69;1731454;81;21065;-70
2022/02/08 20:36:18;;;;;;;5.60;3.05;;;;;;;5.71;52.61;101792.00;1730631;81;21633;-70
2022/02/08 20:38:48;;;;;;;5.35;3.12;;;;;;;5.71;52.73;101789.84;1723113;81;21014;-71
2022/02/08 20:41:22;;;;;;;4.75;3.50;;;;;;;5.70;52.90;101794.16;1747994;81;21161;-70
2022/02/08 20:43:49;;;;;;;5.50;3.10;;;;;;;5.69;53.06;101792.41;1748667;82;21515;-70
2022/02/08 20:46:16;;;;;;;5.12;3.08;;;;;;;5.68;53.25;101793.69;1755206;80;20980;-71
2022/02/08 20:48:45;;;;;;;3.70;3.00;;;;;;;5.69;53.31;101797.57;1720429;82;21610;-71
2022/02/08 20:51:11;;;;;;;5.55;3.15;;;;;;;5.70;53.55;101788.12;1743679;81;21124;-71
2022/02/08 20:53:40;;;;;;;7.03;3.25;;;;;;;5.80;53.46;101788.69;1743836;80;21545;-71
2022/02/08 20:56:10;;;;;;;5.70;3.27;;;;;;;5.94;53.16;101787.19;1731735;81;21034;-71
2022/02/08 21:01:24;;;;;;;5.83;3.65;;;;;;;5.98;53.09;101790.26;1738779;82;21146;-71
2022/02/08 21:03:54;;;;;;;5.95;4.12;;;;;;;5.98;53.10;101788.97;1735922;81;21557;-70
2022/02/08 21:06:21;;;;;;;7.17;4.22;;;;;;;5.99;53.07;101784.26;1741857;81;20983;-72
2022/02/08 21:08:50;;;;;;;4.20;3.45;;;;;;;5.97;52.89;101774.75;1762345;80;21509;-71
2022/02/08 21:11:17;;;;;;;6.90;3.62;;;;;;;5.94;52.56;101778.16;1728245;81;21052;-71
2022/02/08 21:13:51;;;;;;;5.10;3.22;;;;;;;5.89;52.42;101782.41;1701396;83;21111;-70
2022/02/08 21:16:25;;;;;;;5.72;3.12;;;;;;;5.85;52.29;101779.34;1723703;81;21462;-71